Time;durP1;ratioP1;P1;durP2;ratioP2;P2;SDS_P1;SDS_P2;PMS_P1;PMS_P2;Temp;Humidity;BMP_temperature;BMP_pressure;BME280_temperature;BME280_humidity;BME280_pressure;Samples;Min_cycle;Max_cycle;Signal;HPM_P1;HPM_P2
2023/07/07 00:00:31;;;;;;;2.00;1.80;;;16.10;55.10;;;;;;874824;163;27519;-74
2023/07/07 00:02:58;;;;;;;1.70;1.60;;;16.00;55.30;;;;;;874975;162;27478;-74
2023/07/07 00:05:24;;;;;;;4.27;1.80;;;16.00;55.40;;;;;;874544;160;27474;-74
2023/07/07 00:07:51;;;;;;;1.80;1.70;;;15.90;55.50;;;;;;874205;160;27543;-74
2023/07/07 00:10:17;;;;;;;2.03;1.90;;;15.90;55.80;;;;;;874922;161;27516;-74
2023/07/07 00:12:44;;;;;;;2.20;1.77;;;15.80;55.90;;;;;;876716;161;27480;-74
2023/07/07 00:15:10;;;;;;;2.20;2.00;;;15.80;56.10;;;;;;875211;160;27455;-74
2023/07/07 00:17:37;;;;;;;4.33;1.90;;;15.70;56.10;;;;;;875070;160;27477;-74
2023/07/07 00:20:07;;;;;;;2.17;1.97;;;15.60;56.20;;;;;;874689;160;27387;-74
2023/07/07 00:22:31;;;;;;;1.83;1.73;;;15.60;56.30;;;;;;879132;161;27911;-74
2023/07/07 00:24:57;;;;;;;2.20;2.00;;;15.50;56.60;;;;;;878655;161;27440;-74
2023/07/07 00:27:23;;;;;;;1.67;1.57;;;15.50;56.80;;;;;;874142;161;27526;-74
2023/07/07 00:29:50;;;;;;;1.77;1.67;;;15.40;56.80;;;;;;873663;161;27456;-74
2023/07/07 00:32:17;;;;;;;2.93;2.10;;;15.40;57.00;;;;;;873927;161;27542;-74
2023/07/07 00:34:43;;;;;;;2.50;2.10;;;15.30;57.20;;;;;;873606;161;27453;-74
2023/07/07 00:37:10;;;;;;;2.20;2.00;;;15.30;57.30;;;;;;873616;162;27462;-74
2023/07/07 00:39:36;;;;;;;2.23;2.03;;;15.30;57.40;;;;;;873064;161;27451;-74
2023/07/07 00:42:03;;;;;;;3.90;2.37;;;15.20;57.60;;;;;;873914;162;27614;-74
2023/07/07 00:44:30;;;;;;;2.33;2.13;;;15.20;57.80;;;;;;873451;162;27352;-74
2023/07/07 00:46:56;;;;;;;2.07;1.80;;;15.10;58.00;;;;;;864754;163;27446;-74
2023/07/07 00:49:23;;;;;;;2.83;2.50;;;15.10;58.20;;;;;;874087;162;27467;-74
2023/07/07 00:51:56;;;;;;;1.93;1.80;;;15.10;58.20;;;;;;873754;162;27473;-74
2023/07/07 00:54:22;;;;;;;2.00;1.90;;;15.00;58.40;;;;;;872968;163;27443;-74
2023/07/07 00:56:48;;;;;;;5.60;2.23;;;15.00;58.50;;;;;;873060;161;27545;-74
2023/07/07 00:59:15;;;;;;;2.77;1.93;;;15.00;58.70;;;;;;873850;162;27513;-74
2023/07/07 01:01:42;;;;;;;2.30;2.10;;;14.90;58.70;;;;;;873414;161;27439;-74
2023/07/07 01:04:08;;;;;;;2.07;1.93;;;14.90;59.00;;;;;;873664;162;27410;-74
2023/07/07 01:06:35;;;;;;;3.13;2.37;;;14.90;59.30;;;;;;873494;161;27423;-74
2023/07/07 01:09:01;;;;;;;2.80;2.27;;;14.80;59.60;;;;;;872812;161;27540;-74
2023/07/07 01:11:30;;;;;;;2.37;1.93;;;14.80;59.60;;;;;;873197;161;27455;-74
2023/07/07 01:13:54;;;;;;;2.23;2.10;;;14.80;59.80;;;;;;873210;161;27423;-74
2023/07/07 01:16:33;;;;;;;2.30;2.03;;;14.80;59.90;;;;;;873743;161;27534;-74
2023/07/07 01:19:17;;;;;;;2.00;1.80;;;14.80;59.90;;;;;;873307;158;27466;-74
2023/07/07 01:22:14;;;;;;;2.37;2.00;;;14.70;59.90;;;;;;872669;162;27446;-74
2023/07/07 01:25:00;;;;;;;2.73;2.23;;;14.70;59.80;;;;;;858867;161;27570;-74
2023/07/07 01:27:42;;;;;;;1.93;1.83;;;14.70;59.70;;;;;;873040;161;27541;-75
2023/07/07 01:30:26;;;;;;;2.43;2.00;;;14.60;59.90;;;;;;873359;161;28837;-75
2023/07/07 01:32:52;;;;;;;2.03;1.93;;;14.60;60.20;;;;;;872339;161;27514;-74
2023/07/07 01:35:19;;;;;;;2.30;2.20;;;14.50;60.20;;;;;;873254;161;27486;-73
2023/07/07 01:37:51;;;;;;;2.43;2.20;;;14.50;60.50;;;;;;873486;161;27521;-74
2023/07/07 01:40:18;;;;;;;2.23;1.93;;;14.50;60.70;;;;;;872679;161;27454;-73
2023/07/07 01:42:45;;;;;;;3.40;2.13;;;14.50;60.80;;;;;;873855;161;27360;-73
2023/07/07 01:45:20;;;;;;;2.00;1.90;;;14.40;60.90;;;;;;873545;161;27439;-73
2023/07/07 01:47:47;;;;;;;2.67;2.00;;;14.40;61.10;;;;;;872739;161;27451;-73
2023/07/07 01:50:16;;;;;;;2.27;1.90;;;14.40;61.10;;;;;;871966;161;27475;-73
2023/07/07 01:52:46;;;;;;;2.00;1.90;;;14.40;61.30;;;;;;873400;161;27455;-73
2023/07/07 01:55:27;;;;;;;2.57;2.37;;;14.40;61.40;;;;;;873285;162;27478;-74
2023/07/07 01:57:53;;;;;;;2.60;2.23;;;14.40;61.60;;;;;;872921;161;27544;-74
2023/07/07 02:00:20;;;;;;;2.43;2.27;;;14.40;61.50;;;;;;873117;161;27494;-74
2023/07/07 02:02:47;;;;;;;3.17;2.20;;;14.40;61.90;;;;;;872849;161;27443;-73
2023/07/07 02:05:13;;;;;;;3.80;2.30;;;14.30;62.10;;;;;;873510;161;27561;-74
2023/07/07 02:07:40;;;;;;;2.70;2.47;;;14.30;62.30;;;;;;873397;161;27478;-73
2023/07/07 02:10:06;;;;;;;3.07;2.37;;;14.30;62.30;;;;;;874271;161;27425;-74
2023/07/07 02:12:33;;;;;;;3.03;2.30;;;14.30;62.40;;;;;;874020;161;28000;-74
2023/07/07 02:15:00;;;;;;;2.43;2.10;;;14.30;62.40;;;;;;873275;161;27441;-74
2023/07/07 02:17:28;;;;;;;4.73;2.23;;;14.30;62.40;;;;;;873886;161;27443;-74
2023/07/07 02:19:53;;;;;;;6.37;2.27;;;14.30;62.50;;;;;;873550;160;27482;-74
2023/07/07 02:22:19;;;;;;;2.93;2.03;;;14.30;62.70;;;;;;872447;161;27412;-73
2023/07/07 02:24:46;;;;;;;2.83;2.40;;;14.30;63.10;;;;;;872988;161;27558;-73
2023/07/07 02:27:12;;;;;;;2.63;2.43;;;14.30;63.20;;;;;;873099;162;27404;-73
2023/07/07 02:29:39;;;;;;;2.70;2.50;;;14.20;63.20;;;;;;873302;161;27565;-73
2023/07/07 02:32:06;;;;;;;2.33;2.13;;;14.20;63.70;;;;;;872327;163;27453;-73
2023/07/07 02:34:33;;;;;;;2.47;2.27;;;14.20;63.50;;;;;;873119;163;27440;-73
2023/07/07 02:36:59;;;;;;;2.33;2.13;;;14.20;63.60;;;;;;873241;161;27395;-73
2023/07/07 02:39:26;;;;;;;2.27;2.07;;;14.20;63.80;;;;;;873043;161;27442;-73
2023/07/07 02:41:52;;;;;;;2.13;1.93;;;14.20;64.10;;;;;;873454;163;27449;-73
2023/07/07 02:44:19;;;;;;;4.87;2.43;;;14.20;64.20;;;;;;873131;161;27348;-73
2023/07/07 02:46:45;;;;;;;2.33;2.13;;;14.20;64.30;;;;;;873294;161;27426;-74
2023/07/07 02:49:12;;;;;;;2.47;2.27;;;14.20;64.40;;;;;;873076;161;27458;-74
2023/07/07 02:51:39;;;;;;;2.50;2.23;;;14.20;64.60;;;;;;873677;163;27438;-73
2023/07/07 02:54:06;;;;;;;2.40;2.10;;;14.20;64.60;;;;;;873011;163;27549;-73
2023/07/07 02:56:32;;;;;;;3.33;2.20;;;14.10;64.60;;;;;;872451;161;27505;-73
2023/07/07 02:58:58;;;;;;;2.00;1.90;;;14.10;64.60;;;;;;873509;161;27427;-74
2023/07/07 03:01:25;;;;;;;2.60;2.40;;;14.10;64.70;;;;;;873373;162;27512;-74
2023/07/07 03:03:52;;;;;;;2.50;2.30;;;14.10;64.90;;;;;;873629;163;27525;-73
2023/07/07 03:06:21;;;;;;;2.33;2.13;;;14.10;65.20;;;;;;873315;161;27430;-74
2023/07/07 03:08:47;;;;;;;2.60;2.40;;;14.10;65.50;;;;;;872537;161;27523;-73
2023/07/07 03:11:14;;;;;;;2.53;2.23;;;14.00;65.40;;;;;;873125;162;27534;-74
2023/07/07 03:13:41;;;;;;;3.87;2.20;;;14.00;65.40;;;;;;873067;163;27553;-74
2023/07/07 03:16:08;;;;;;;2.43;2.23;;;14.00;65.50;;;;;;873322;161;27428;-73
2023/07/07 03:18:34;;;;;;;2.00;1.90;;;14.00;65.00;;;;;;872912;161;27493;-74
2023/07/07 03:21:00;;;;;;;2.33;2.13;;;14.00;65.80;;;;;;872967;162;27432;-74
2023/07/07 03:23:27;;;;;;;3.87;2.37;;;14.00;65.80;;;;;;873469;161;27450;-73
2023/07/07 03:25:53;;;;;;;2.60;1.70;;;13.90;65.70;;;;;;872768;161;27470;-73
2023/07/07 03:28:20;;;;;;;2.67;1.90;;;13.90;65.60;;;;;;873612;161;27517;-74
2023/07/07 03:30:48;;;;;;;2.70;1.97;;;13.90;65.50;;;;;;873493;163;27525;-73
2023/07/07 03:33:13;;;;;;;2.53;1.97;;;13.90;65.40;;;;;;872916;161;27546;-74
2023/07/07 03:35:40;;;;;;;3.43;2.40;;;13.80;65.40;;;;;;873493;161;27396;-73
2023/07/07 03:38:06;;;;;;;2.23;2.03;;;13.80;65.40;;;;;;873342;161;27551;-73
2023/07/07 03:40:33;;;;;;;2.33;1.83;;;13.80;66.00;;;;;;872628;163;27388;-73
2023/07/07 03:43:00;;;;;;;3.57;2.20;;;13.70;65.70;;;;;;873115;162;27455;-73
2023/07/07 03:45:26;;;;;;;2.87;2.07;;;13.70;65.70;;;;;;873362;161;27467;-73
2023/07/07 03:47:53;;;;;;;2.30;2.10;;;13.70;65.70;;;;;;873089;161;27463;-73
2023/07/07 03:50:19;;;;;;;2.20;2.00;;;13.60;65.80;;;;;;873369;162;27357;-74
2023/07/07 03:52:46;;;;;;;2.33;2.13;;;13.60;66.10;;;;;;873136;161;27506;-73
2023/07/07 03:55:13;;;;;;;1.90;1.80;;;13.60;66.30;;;;;;873350;162;27463;-74
2023/07/07 03:57:39;;;;;;;2.60;2.13;;;13.60;66.30;;;;;;873441;162;27419;-73
2023/07/07 04:00:06;;;;;;;2.70;2.50;;;13.60;66.50;;;;;;873078;161;27543;-73
2023/07/07 04:02:33;;;;;;;2.87;2.13;;;13.60;67.20;;;;;;873883;161;27506;-74
2023/07/07 04:04:59;;;;;;;2.60;2.30;;;13.60;66.70;;;;;;873002;161;27513;-74
2023/07/07 04:07:26;;;;;;;2.80;2.50;;;13.60;66.70;;;;;;873433;161;27466;-74
2023/07/07 04:09:52;;;;;;;2.50;2.30;;;13.70;66.80;;;;;;873354;161;27498;-74
2023/07/07 04:12:19;;;;;;;2.53;2.33;;;13.70;66.90;;;;;;873503;162;27424;-74
2023/07/07 04:14:45;;;;;;;2.60;2.10;;;13.70;66.90;;;;;;873292;162;27426;-73
2023/07/07 04:17:12;;;;;;;2.43;2.23;;;13.80;67.00;;;;;;874519;159;27509;-73
2023/07/07 04:19:39;;;;;;;3.83;2.30;;;13.80;67.00;;;;;;873694;163;27438;-73
2023/07/07 04:22:05;;;;;;;2.90;2.43;;;13.80;67.10;;;;;;873449;162;27430;-73
2023/07/07 04:24:32;;;;;;;3.20;2.80;;;13.90;67.10;;;;;;873437;161;27482;-73
2023/07/07 04:26:58;;;;;;;4.10;2.73;;;13.90;67.10;;;;;;873391;161;27458;-74
2023/07/07 04:29:25;;;;;;;2.90;2.70;;;14.00;67.20;;;;;;873651;161;27537;-73
2023/07/07 04:31:52;;;;;;;3.83;2.70;;;14.10;67.40;;;;;;872425;161;27957;-74
2023/07/07 04:34:18;;;;;;;2.97;2.73;;;14.10;67.40;;;;;;872624;160;27476;-73
2023/07/07 04:36:45;;;;;;;2.57;2.30;;;14.20;67.40;;;;;;872766;161;27410;-73
2023/07/07 04:39:11;;;;;;;2.37;2.17;;;14.30;67.40;;;;;;873492;161;27466;-73
2023/07/07 04:41:38;;;;;;;3.90;2.50;;;14.40;67.40;;;;;;873501;161;27364;-74
2023/07/07 04:44:05;;;;;;;3.37;2.77;;;14.50;67.40;;;;;;873542;162;27428;-73
2023/07/07 04:46:34;;;;;;;3.07;2.77;;;14.60;67.40;;;;;;873534;161;27448;-73
2023/07/07 04:49:06;;;;;;;2.70;2.50;;;14.70;67.40;;;;;;873529;163;27584;-74
2023/07/07 04:51:27;;;;;;;2.90;2.50;;;14.70;66.70;;;;;;873215;162;27501;-74
2023/07/07 04:53:53;;;;;;;4.23;3.13;;;14.80;67.50;;;;;;873457;161;27935;-74
2023/07/07 04:56:20;;;;;;;2.70;2.50;;;14.90;67.70;;;;;;873090;160;27439;-73
2023/07/07 04:58:48;;;;;;;3.00;2.70;;;15.10;68.00;;;;;;873177;161;27459;-74
2023/07/07 05:01:15;;;;;;;2.73;2.53;;;15.20;68.30;;;;;;872983;161;27537;-74
2023/07/07 05:03:40;;;;;;;3.42;3.12;;;15.50;69.00;;;;;;872529;161;27497;-74
2023/07/07 05:06:06;;;;;;;2.67;2.42;;;15.80;69.60;;;;;;873157;161;27526;-74
2023/07/07 05:08:33;;;;;;;2.30;2.10;;;16.20;70.60;;;;;;873663;161;27443;-74
2023/07/07 05:11:00;;;;;;;2.47;2.27;;;16.80;71.60;;;;;;873640;161;27564;-74
2023/07/07 05:13:26;;;;;;;2.90;2.67;;;17.60;71.90;;;;;;872872;160;27408;-74
2023/07/07 05:16:04;;;;;;;3.75;2.17;;;18.50;71.80;;;;;;874309;161;27412;-74
2023/07/07 05:18:31;;;;;;;2.35;2.15;;;19.40;71.20;;;;;;873057;162;27440;-74
2023/07/07 05:20:58;;;;;;;2.37;2.17;;;20.60;70.00;;;;;;873633;163;27457;-74
2023/07/07 05:23:24;;;;;;;2.47;2.27;;;21.60;68.40;;;;;;872529;161;27412;-74
2023/07/07 05:25:51;;;;;;;6.45;2.40;;;22.80;66.60;;;;;;873095;161;27461;-74
2023/07/07 05:28:17;;;;;;;3.10;1.95;;;23.80;64.60;;;;;;872034;162;27522;-74
2023/07/07 05:30:44;;;;;;;1.98;1.80;;;24.90;62.50;;;;;;871681;162;27452;-74
2023/07/07 05:33:10;;;;;;;2.72;1.90;;;25.90;60.60;;;;;;872307;161;27455;-74
2023/07/07 05:35:37;;;;;;;2.15;1.95;;;26.90;59.10;;;;;;872010;161;27437;-74
2023/07/07 05:38:04;;;;;;;2.17;2.02;;;27.80;58.20;;;;;;871639;161;27500;-75
2023/07/07 05:40:30;;;;;;;2.50;1.90;;;28.70;56.30;;;;;;872182;161;27451;-74
2023/07/07 05:42:57;;;;;;;2.02;1.92;;;29.50;55.00;;;;;;871757;161;27529;-75
2023/07/07 05:45:23;;;;;;;2.17;1.75;;;30.30;53.70;;;;;;870381;161;27526;-75
2023/07/07 05:47:50;;;;;;;2.27;2.08;;;31.00;52.50;;;;;;870918;162;27398;-75
2023/07/07 05:50:17;;;;;;;2.42;1.80;;;31.70;51.40;;;;;;871058;162;27522;-75
2023/07/07 05:52:43;;;;;;;1.67;1.57;;;32.40;50.40;;;;;;871763;162;27551;-74
2023/07/07 05:55:10;;;;;;;2.20;2.00;;;33.00;49.30;;;;;;871039;162;27425;-75
2023/07/07 05:57:36;;;;;;;1.92;1.82;;;33.70;48.30;;;;;;871271;163;27446;-75
2023/07/07 06:00:03;;;;;;;2.15;1.98;;;34.20;47.30;;;;;;871416;161;26276;-75
2023/07/07 06:02:30;;;;;;;1.72;1.62;;;34.80;46.30;;;;;;872120;161;26365;-75
2023/07/07 06:04:56;;;;;;;3.62;2.08;;;35.40;45.60;;;;;;871451;163;26437;-75
2023/07/07 06:07:23;;;;;;;1.92;1.80;;;35.90;44.60;;;;;;872146;161;26342;-75
2023/07/07 06:09:51;;;;;;;1.77;1.67;;;36.40;43.90;;;;;;870933;161;26322;-75
2023/07/07 06:12:16;;;;;;;1.85;1.75;;;36.90;43.00;;;;;;872026;161;26366;-74
2023/07/07 06:14:43;;;;;;;4.60;1.72;;;37.30;42.30;;;;;;872186;162;26921;-74
2023/07/07 06:17:09;;;;;;;2.62;1.95;;;37.70;41.50;;;;;;871808;161;27433;-74
2023/07/07 06:19:36;;;;;;;2.45;2.00;;;38.10;40.80;;;;;;871791;161;26304;-74
2023/07/07 06:22:02;;;;;;;1.77;1.67;;;38.50;40.10;;;;;;872181;161;26318;-74
2023/07/07 06:24:29;;;;;;;2.05;1.50;;;38.80;39.40;;;;;;870710;162;26465;-74
2023/07/07 06:26:55;;;;;;;1.62;1.27;;;39.20;38.80;;;;;;872045;161;26486;-74
2023/07/07 06:29:22;;;;;;;1.72;1.62;;;39.60;38.20;;;;;;872933;161;26427;-74
2023/07/07 06:31:49;;;;;;;1.85;1.65;;;40.00;37.60;;;;;;873710;161;26316;-74
2023/07/07 06:34:15;;;;;;;1.67;1.50;;;40.20;36.90;;;;;;873868;161;26459;-74
2023/07/07 06:36:42;;;;;;;2.60;1.70;;;40.50;36.20;;;;;;874252;160;26448;-74
2023/07/07 06:39:08;;;;;;;1.87;1.60;;;40.80;35.90;;;;;;874096;161;26444;-74
2023/07/07 06:41:35;;;;;;;2.50;1.80;;;41.10;35.50;;;;;;873944;162;26405;-72
2023/07/07 06:44:02;;;;;;;2.05;1.60;;;41.50;35.00;;;;;;874703;162;26420;-72
2023/07/07 06:46:28;;;;;;;1.80;1.70;;;41.80;34.30;;;;;;874675;160;26346;-72
2023/07/07 06:48:56;;;;;;;2.42;1.37;;;42.10;33.70;;;;;;874731;160;26400;-72
2023/07/07 06:51:21;;;;;;;1.67;1.57;;;42.30;33.10;;;;;;874709;162;26326;-72
2023/07/07 06:53:48;;;;;;;2.33;1.52;;;42.60;32.70;;;;;;874441;162;26695;-72
2023/07/07 06:56:15;;;;;;;2.05;1.70;;;42.90;32.10;;;;;;874725;160;26346;-72
2023/07/07 06:58:41;;;;;;;2.10;1.80;;;43.10;31.60;;;;;;874293;162;26455;-72
2023/07/07 07:01:11;;;;;;;1.30;1.20;;;43.40;31.30;;;;;;874862;160;26341;-72
2023/07/07 07:03:37;;;;;;;1.60;1.50;;;43.70;31.00;;;;;;874483;160;26388;-72
2023/07/07 07:06:04;;;;;;;1.62;1.52;;;43.90;30.70;;;;;;874443;160;26378;-72
2023/07/07 07:08:30;;;;;;;2.52;1.40;;;44.20;30.70;;;;;;874608;160;26832;-72
2023/07/07 07:10:57;;;;;;;1.65;1.30;;;44.40;29.80;;;;;;874642;161;26383;-72
2023/07/07 07:13:23;;;;;;;1.40;1.30;;;44.60;29.40;;;;;;874343;160;26410;-72
2023/07/07 07:15:50;;;;;;;2.37;1.30;;;44.90;29.30;;;;;;873818;160;26373;-72
2023/07/07 07:18:17;;;;;;;1.37;1.27;;;45.20;29.10;;;;;;874579;160;26380;-72
2023/07/07 07:20:43;;;;;;;1.52;1.42;;;45.50;28.80;;;;;;874457;160;26315;-72
2023/07/07 07:23:10;;;;;;;1.45;1.15;;;45.80;28.40;;;;;;874963;162;26295;-72
2023/07/07 07:25:36;;;;;;;1.50;1.40;;;46.10;28.00;;;;;;874284;161;26314;-72
2023/07/07 07:28:03;;;;;;;2.35;1.40;;;46.30;27.80;;;;;;873354;162;26488;-73
2023/07/07 07:30:29;;;;;;;1.50;1.40;;;46.40;27.20;;;;;;873406;160;26437;-72
2023/07/07 07:32:56;;;;;;;1.40;1.30;;;46.60;27.10;;;;;;872741;162;26443;-72
2023/07/07 07:35:23;;;;;;;1.55;1.22;;;46.60;27.00;;;;;;873063;161;26473;-72
2023/07/07 07:37:49;;;;;;;1.50;1.40;;;46.70;26.70;;;;;;873629;162;26350;-72
2023/07/07 07:40:16;;;;;;;1.95;1.52;;;46.90;26.40;;;;;;873869;162;26362;-73
2023/07/07 07:42:42;;;;;;;1.40;1.30;;;47.00;26.30;;;;;;873540;161;26428;-73
2023/07/07 07:45:09;;;;;;;1.20;1.12;;;47.00;26.20;;;;;;873845;163;26428;-72
2023/07/07 07:47:36;;;;;;;1.40;1.20;;;47.10;26.10;;;;;;872736;161;26262;-73
2023/07/07 07:50:03;;;;;;;1.60;1.50;;;47.30;26.10;;;;;;873763;162;26440;-72
2023/07/07 07:52:29;;;;;;;1.02;1.02;;;47.50;25.90;;;;;;873503;162;26374;-72
2023/07/07 07:54:55;;;;;;;1.32;1.22;;;47.70;25.60;;;;;;873799;162;26407;-72
2023/07/07 07:57:22;;;;;;;1.30;1.20;;;48.00;25.60;;;;;;873388;161;26488;-72
2023/07/07 07:59:49;;;;;;;1.40;1.30;;;48.20;25.30;;;;;;873778;162;26310;-73
2023/07/07 08:02:15;;;;;;;2.40;1.32;;;48.60;25.10;;;;;;873372;161;26346;-73
2023/07/07 08:04:42;;;;;;;1.87;1.27;;;48.80;24.80;;;;;;874105;162;26353;-73
2023/07/07 08:07:08;;;;;;;1.30;1.20;;;49.10;24.60;;;;;;873144;161;26263;-73
2023/07/07 08:09:35;;;;;;;6.90;1.52;;;49.30;24.40;;;;;;873689;163;26426;-72
2023/07/07 08:12:01;;;;;;;1.62;1.40;;;49.40;24.10;;;;;;873810;162;26353;-73
2023/07/07 08:14:30;;;;;;;1.20;1.20;;;49.50;23.90;;;;;;873310;161;26417;-73
2023/07/07 08:16:55;;;;;;;3.55;1.30;;;49.70;23.80;;;;;;873208;161;26317;-73
2023/07/07 08:19:21;;;;;;;2.45;1.22;;;49.80;23.60;;;;;;873964;162;26338;-73
2023/07/07 08:21:48;;;;;;;1.30;1.10;;;49.90;23.70;;;;;;873424;162;26444;-73
2023/07/07 08:24:14;;;;;;;3.83;1.40;;;50.00;23.30;;;;;;873162;162;26342;-73
2023/07/07 08:26:41;;;;;;;1.67;1.20;;;50.20;23.50;;;;;;872991;161;26437;-73
2023/07/07 08:29:09;;;;;;;1.40;1.30;;;50.40;23.30;;;;;;874639;162;26384;-73
2023/07/07 08:31:34;;;;;;;2.83;1.22;;;50.60;23.00;;;;;;874768;162;26372;-73
2023/07/07 08:34:01;;;;;;;1.25;1.25;;;50.60;22.80;;;;;;874060;160;26475;-73
2023/07/07 08:36:27;;;;;;;1.37;1.27;;;50.70;22.70;;;;;;873941;160;26330;-72
2023/07/07 08:38:55;;;;;;;1.60;1.50;;;50.80;22.40;;;;;;874175;162;26345;-72
2023/07/07 08:41:20;;;;;;;1.35;1.25;;;50.80;22.30;;;;;;874292;163;26271;-72
2023/07/07 08:43:47;;;;;;;1.87;1.50;;;50.80;22.20;;;;;;874769;162;26728;-72
2023/07/07 08:46:18;;;;;;;2.15;1.30;;;50.80;22.10;;;;;;874191;161;26359;-72
2023/07/07 08:48:43;;;;;;;1.45;1.35;;;50.80;22.00;;;;;;874388;162;26333;-72
2023/07/07 08:51:22;;;;;;;1.92;1.50;;;50.80;22.10;;;;;;874152;160;26318;-72
2023/07/07 08:54:10;;;;;;;1.30;1.20;;;50.90;21.90;;;;;;868911;160;26301;-72
2023/07/07 08:56:45;;;;;;;4.72;1.70;;;50.90;22.00;;;;;;872618;160;26353;-72
2023/07/07 08:59:20;;;;;;;1.98;1.20;;;51.00;21.90;;;;;;873201;160;26349;-75
2023/07/07 09:01:59;;;;;;;1.50;1.30;;;51.10;21.80;;;;;;873026;160;26337;-75
2023/07/07 09:04:37;;;;;;;1.10;1.10;;;51.10;21.50;;;;;;873551;160;26315;-75
2023/07/07 09:07:28;;;;;;;1.27;1.25;;;51.20;21.50;;;;;;871866;160;27100;-75
2023/07/07 09:10:13;;;;;;;3.87;1.25;;;51.20;21.40;;;;;;874335;160;26317;-74
2023/07/07 09:12:48;;;;;;;1.60;1.50;;;51.20;21.30;;;;;;873438;160;26707;-75
2023/07/07 09:15:23;;;;;;;1.15;1.12;;;51.20;21.10;;;;;;874633;160;26349;-75
2023/07/07 09:17:50;;;;;;;1.32;1.22;;;51.10;21.20;;;;;;874412;160;26404;-75
2023/07/07 09:20:17;;;;;;;1.55;1.45;;;51.10;21.10;;;;;;873147;162;26259;-75
2023/07/07 09:22:43;;;;;;;1.32;1.25;;;51.10;21.10;;;;;;873044;161;26326;-75
2023/07/07 09:25:12;;;;;;;1.30;1.20;;;51.20;21.20;;;;;;874060;163;26435;-75
2023/07/07 09:27:42;;;;;;;1.90;1.77;;;51.30;21.10;;;;;;873426;160;26416;-75
2023/07/07 09:30:12;;;;;;;1.60;1.50;;;51.40;20.70;;;;;;873115;161;26479;-75
2023/07/07 09:32:38;;;;;;;1.80;1.47;;;51.50;20.70;;;;;;872427;162;26337;-75
2023/07/07 09:35:05;;;;;;;1.42;1.30;;;51.40;20.40;;;;;;873547;163;26480;-75
2023/07/07 09:37:34;;;;;;;1.75;1.50;;;51.40;20.40;;;;;;873369;161;26463;-75
2023/07/07 09:40:15;;;;;;;1.52;1.42;;;51.30;20.30;;;;;;873044;163;26332;-75
2023/07/07 09:42:48;;;;;;;1.67;1.57;;;51.20;20.00;;;;;;873427;163;26411;-75
2023/07/07 09:45:23;;;;;;;1.20;1.20;;;51.10;20.00;;;;;;873160;163;26349;-75
2023/07/07 09:47:52;;;;;;;1.85;1.45;;;50.90;20.00;;;;;;873194;161;26334;-75
2023/07/07 09:50:19;;;;;;;1.95;1.65;;;50.70;20.00;;;;;;871705;161;26311;-75
2023/07/07 09:53:04;;;;;;;1.50;1.40;;;50.60;20.00;;;;;;873405;163;26385;-75
2023/07/07 09:55:31;;;;;;;2.65;1.87;;;50.40;19.90;;;;;;873130;161;26342;-75
2023/07/07 09:58:09;;;;;;;1.70;1.60;;;50.10;20.10;;;;;;873008;163;26245;-75
2023/07/07 10:00:36;;;;;;;1.98;1.82;;;49.70;20.00;;;;;;873288;161;26427;-75
2023/07/07 10:03:02;;;;;;;2.05;1.95;;;49.30;19.90;;;;;;873717;162;26342;-75
2023/07/07 10:05:29;;;;;;;1.87;1.77;;;48.80;20.00;;;;;;872842;161;26365;-76
2023/07/07 10:07:56;;;;;;;2.05;1.82;;;48.20;20.10;;;;;;873089;161;26346;-75
2023/07/07 10:10:22;;;;;;;2.47;2.27;;;47.60;20.30;;;;;;873036;163;26337;-75
2023/07/07 10:12:49;;;;;;;2.27;2.08;;;47.10;20.60;;;;;;873430;162;26339;-75
2023/07/07 10:15:27;;;;;;;2.15;2.05;;;46.50;20.50;;;;;;873277;162;26460;-75
2023/07/07 10:17:54;;;;;;;2.10;1.98;;;46.00;20.70;;;;;;872626;161;26399;-75
2023/07/07 10:20:20;;;;;;;2.30;2.10;;;45.50;20.80;;;;;;873331;163;26369;-75
2023/07/07 10:22:47;;;;;;;2.60;2.40;;;44.80;21.00;;;;;;873077;163;26267;-75
2023/07/07 10:25:14;;;;;;;3.05;2.83;;;44.10;21.10;;;;;;873217;163;26803;-76
2023/07/07 10:27:40;;;;;;;2.62;2.42;;;43.40;21.40;;;;;;873223;161;26798;-75
2023/07/07 10:30:07;;;;;;;2.75;2.55;;;42.90;21.70;;;;;;873568;163;26362;-75
2023/07/07 10:32:34;;;;;;;2.70;2.50;;;42.30;21.90;;;;;;872083;162;26336;-75
2023/07/07 10:35:03;;;;;;;2.50;2.30;;;41.90;22.10;;;;;;873301;161;26377;-75
2023/07/07 10:37:29;;;;;;;3.98;2.67;;;41.50;22.20;;;;;;874290;160;27460;-75
2023/07/07 10:39:56;;;;;;;3.45;2.80;;;41.00;22.30;;;;;;874112;161;26456;-75
2023/07/07 10:42:25;;;;;;;2.75;2.55;;;40.60;22.70;;;;;;873917;163;26460;-75
2023/07/07 10:44:49;;;;;;;3.33;3.05;;;40.10;22.80;;;;;;873484;160;26337;-75
2023/07/07 10:47:16;;;;;;;3.33;3.05;;;39.70;23.00;;;;;;873807;160;26468;-75
2023/07/07 10:49:42;;;;;;;3.75;3.00;;;39.30;23.20;;;;;;873756;160;27424;-75
2023/07/07 10:52:30;;;;;;;3.22;2.92;;;38.90;23.50;;;;;;873077;161;26326;-75
2023/07/07 10:54:59;;;;;;;3.25;3.05;;;38.60;23.60;;;;;;873763;161;26340;-75
2023/07/07 10:57:38;;;;;;;3.10;2.90;;;38.30;23.80;;;;;;873521;162;27896;-78
2023/07/07 11:00:13;;;;;;;3.05;2.77;;;38.00;23.80;;;;;;873697;162;26366;-77
2023/07/07 11:03:01;;;;;;;3.42;3.12;;;37.80;23.90;;;;;;872871;160;27471;-78
2023/07/07 11:05:45;;;;;;;7.33;2.92;;;37.60;24.10;;;;;;850125;165;27456;-78
2023/07/07 11:08:33;;;;;;;3.45;3.15;;;37.40;24.20;;;;;;868511;160;27456;-78
2023/07/07 11:11:24;;;;;;;3.17;2.98;;;37.20;24.40;;;;;;874203;162;27558;-77
2023/07/07 11:14:08;;;;;;;3.42;3.15;;;37.00;24.60;;;;;;873884;160;27402;-77
2023/07/07 11:16:57;;;;;;;3.00;2.75;;;36.90;24.90;;;;;;874030;160;27499;-78
2023/07/07 11:19:35;;;;;;;3.58;3.27;;;36.70;24.90;;;;;;866794;163;27425;-77
2023/07/07 11:22:38;;;;;;;4.87;3.15;;;36.50;24.70;;;;;;874096;162;27448;-77
2023/07/07 11:25:05;;;;;;;4.15;3.62;;;36.30;24.70;;;;;;873991;162;27448;-76
2023/07/07 11:27:34;;;;;;;3.65;3.10;;;36.00;24.90;;;;;;871952;160;27440;-77
2023/07/07 11:30:10;;;;;;;3.62;3.10;;;35.70;25.10;;;;;;873429;161;27454;-77
2023/07/07 11:32:42;;;;;;;3.25;3.02;;;35.50;25.10;;;;;;872891;161;27546;-77
2023/07/07 11:35:16;;;;;;;3.47;3.17;;;35.30;25.40;;;;;;873049;161;27582;-77
2023/07/07 11:37:44;;;;;;;3.90;3.60;;;35.10;25.30;;;;;;872277;161;27381;-74
2023/07/07 11:40:31;;;;;;;4.62;3.62;;;34.90;25.30;;;;;;872002;162;27469;-74
2023/07/07 11:43:16;;;;;;;4.35;3.95;;;34.80;25.50;;;;;;873618;161;27451;-74
2023/07/07 11:46:01;;;;;;;3.77;3.47;;;34.80;25.40;;;;;;871351;161;27542;-74
2023/07/07 11:48:52;;;;;;;5.30;4.80;;;34.80;25.30;;;;;;850684;163;27543;-74
2023/07/07 11:51:28;;;;;;;4.95;4.45;;;34.80;25.30;;;;;;873098;161;27432;-74
2023/07/07 11:54:03;;;;;;;5.28;4.78;;;34.80;25.20;;;;;;873018;161;27420;-74
2023/07/07 11:56:47;;;;;;;5.70;5.20;;;34.80;25.30;;;;;;854205;161;27536;-74
2023/07/07 11:59:35;;;;;;;5.40;4.90;;;34.90;25.40;;;;;;872359;162;27460;-74
2023/07/07 12:02:02;;;;;;;4.37;3.92;;;34.90;25.20;;;;;;872577;161;27491;-75
2023/07/07 12:04:28;;;;;;;5.08;4.62;;;34.90;25.20;;;;;;873393;162;27431;-74
2023/07/07 12:07:01;;;;;;;5.28;4.78;;;35.00;25.20;;;;;;872334;161;27428;-74
2023/07/07 12:09:30;;;;;;;5.03;4.62;;;35.00;25.50;;;;;;872354;161;27475;-74
2023/07/07 12:12:06;;;;;;;5.37;4.87;;;35.00;25.80;;;;;;873206;161;27448;-74
2023/07/07 12:14:35;;;;;;;5.35;4.85;;;35.00;26.10;;;;;;871305;162;27385;-74
2023/07/07 12:17:01;;;;;;;4.90;4.47;;;35.00;26.10;;;;;;871514;161;27471;-74
2023/07/07 12:19:34;;;;;;;5.67;5.17;;;35.00;26.20;;;;;;873302;161;27457;-74
2023/07/07 12:22:01;;;;;;;5.65;5.12;;;35.00;26.10;;;;;;873157;162;27427;-74
2023/07/07 12:24:30;;;;;;;5.12;4.58;;;35.00;26.20;;;;;;873009;163;27420;-74
2023/07/07 12:27:04;;;;;;;5.35;4.85;;;35.10;26.30;;;;;;872053;162;27389;-74
2023/07/07 12:29:26;;;;;;;4.37;4.08;;;35.10;25.90;;;;;;873156;163;27452;-74
2023/07/07 12:31:54;;;;;;;4.55;3.90;;;35.00;26.50;;;;;;873090;163;27472;-74
2023/07/07 12:34:39;;;;;;;4.78;3.65;;;35.00;26.60;;;;;;873178;161;27456;-74
2023/07/07 12:37:20;;;;;;;4.83;4.40;;;34.90;26.70;;;;;;872753;161;27510;-74
2023/07/07 12:39:54;;;;;;;4.22;3.83;;;34.90;26.80;;;;;;872975;163;27448;-73
2023/07/07 12:42:21;;;;;;;4.28;3.90;;;34.80;26.90;;;;;;873673;162;27434;-73
2023/07/07 12:44:47;;;;;;;4.78;4.28;;;34.80;27.00;;;;;;872906;163;27425;-73
2023/07/07 12:47:17;;;;;;;4.65;4.25;;;34.70;27.00;;;;;;873173;161;27441;-73
2023/07/07 12:49:43;;;;;;;4.78;4.22;;;34.60;26.90;;;;;;870943;163;27915;-73
2023/07/07 12:52:10;;;;;;;4.20;3.80;;;34.50;27.10;;;;;;873601;163;27421;-73
2023/07/07 12:54:36;;;;;;;4.30;3.90;;;34.40;27.30;;;;;;873500;163;27365;-73
2023/07/07 12:57:03;;;;;;;4.17;3.80;;;34.40;27.60;;;;;;873186;161;27531;-73